LIPALIPH

Guest
Details From LIPA - Aviano Ab
To LIPH - Treviso
Flight Number -
Tags Generated
Created
Modified
Stats Distance 28 nm / 52 km
Max Altitude 0 ft / 0 m
Waypoints 2
Social Downloads 4
Likes 0
Share VATSIM

Download

Looking for another format? Having issues loading an existing format? Contact us
Advertisement - Login to hide

Notes

Generated

Route

LIPA LIPH

ID Type Via Altitude Latitude Longitude Leg Dist Tot Dist Heading (true) Name
O LIPA APT - 0 ft / 0 m 46.02333˚ 12.58389˚ - 0 nm - -
O LIPH APT - 0 ft / 0 m 45.64464˚ 12.17963˚ 28 nm 28 nm 217° / 216° -

Altitude Profile

Advertisement - Login to hide

LIPA

Details ICAO LIPA (AVB)
Name AVIANO AB
Region Italy
Timezone Europe/Rome (UTC+1.0)
Stats Elevation 410 ft / 125 m (AMSL)
Location 46.031111° 12.596389°
Runways 1
Magnetic Variation 3.255° E

METAR

LIPA 151955Z 06005KT 9999 FEW030 BKN055 09/06 Q0996 RMK BKN VIS MIN 9999 WIND THR05 /////KT WIND THR23 /////KT A2942 BLU

Decode

TAF

Not found

Departure Runways

ID Width Length Bearing (true) Bearing (mag) Surface Threshold Offset Overrun Length
05 144 ft / 44 m 8,505 ft / 2,592 m 48.12° 44.86° Asphalt 0 ft / 0 m 845 ft / 258 m
23 144 ft / 44 m 8,505 ft / 2,592 m 228.14° 224.88° Asphalt 0 ft / 0 m 919 ft / 280 m

LIPH

Details ICAO LIPH (TSF)
Name TREVISO
Region Italy
Timezone Europe/Rome (UTC+1.0)
Stats Elevation 59 ft / 18 m (AMSL)
Location 45.648499° 12.194136°
Runways 1
Magnetic Variation 3.152° E

METAR

LIPH 151950Z 24003KT 6000 NSC 06/05 Q0996

Decode

TAF

TAF LIPH 151700Z 1518/1618 VRB05KT 9999 SCT060 TEMPO 1521/1524 2000 BR BECMG 1523/1601 01010KT TEMPO 1600/1604 SHRA BECMG 1606/1608 VRB05KT

Decode

Destination Runways

ID Width Length Bearing (true) Bearing (mag) Surface Threshold Offset Overrun Length
07 144 ft / 44 m 7,919 ft / 2,414 m 69.18° 66.03° Asphalt 254 ft / 77 m 975 ft / 297 m
25 144 ft / 44 m 7,919 ft / 2,414 m 249.20° 246.05° Asphalt 389 ft / 119 m 0 ft / 0 m

Approach Navaids

Runway Type Ident Frequency Range Bearing (true) Bearing (mag) Slope Elevation
07 Localiser TRE 109.30 MHz 18 nm / 33 km 69.20° 66.05° - 51 ft / 16 m (AMSL)
07 Glidescope TRE 109.30 MHz 10 nm / 19 km 69.19° 66.04° 3.00° 56 ft / 17 m (AMSL)